Time;durP1;ratioP1;P1;durP2;ratioP2;P2;SDS_P1;SDS_P2;PMS_P1;PMS_P2;Temp;Humidity;BMP_temperature;BMP_pressure;BME280_temperature;BME280_humidity;BME280_pressure;Samples;Min_cycle;Max_cycle;Signal;HPM_P1;HPM_P2
2023/10/23 00:00:29;;;;;;;6.05;4.38;;;;;;;;;;4996243;28;92428;-65
2023/10/23 00:02:55;;;;;;;9.45;4.78;;;;;;;;;;4992288;28;93336;-65
2023/10/23 00:05:22;;;;;;;6.03;4.53;;;;;;;;;;4990807;28;95067;-65
2023/10/23 00:07:48;;;;;;;6.15;4.30;;;;;;;;;;4995911;28;95846;-65
2023/10/23 00:10:15;;;;;;;6.63;4.25;;;;;;;;;;4996104;28;93428;-65
2023/10/23 00:12:41;;;;;;;10.02;4.03;;;;;;;;;;4994349;28;92567;-65
2023/10/23 00:15:08;;;;;;;7.70;4.18;;;;;;;;;;4995003;28;93342;-65
2023/10/23 00:17:34;;;;;;;6.15;4.15;;;;;;;;;;5000615;28;93759;-64
2023/10/23 00:20:02;;;;;;;11.02;4.57;;;;;;;;;;4995948;28;92482;-64
2023/10/23 00:22:28;;;;;;;6.38;4.53;;;;;;;;;;4998913;28;94271;-65
2023/10/23 00:24:54;;;;;;;6.32;4.25;;;;;;;;;;4996298;28;92474;-65
2023/10/23 00:27:21;;;;;;;7.70;4.40;;;;;;;;;;4995874;28;93632;-64
2023/10/23 00:29:47;;;;;;;6.45;4.68;;;;;;;;;;4993059;28;95879;-64
2023/10/23 00:32:14;;;;;;;5.20;3.75;;;;;;;;;;5001057;28;92489;-64
2023/10/23 00:34:40;;;;;;;7.22;4.90;;;;;;;;;;4997919;28;94551;-64
2023/10/23 00:37:06;;;;;;;6.40;4.38;;;;;;;;;;4996117;28;93365;-64
2023/10/23 00:39:33;;;;;;;8.93;5.22;;;;;;;;;;4998196;28;92451;-65
2023/10/23 00:41:59;;;;;;;8.38;4.97;;;;;;;;;;4999616;28;93179;-64
2023/10/23 00:44:27;;;;;;;7.63;4.47;;;;;;;;;;4998452;28;93403;-66
2023/10/23 00:46:54;;;;;;;8.45;4.65;;;;;;;;;;5000081;28;94414;-64
2023/10/23 00:49:21;;;;;;;7.00;4.43;;;;;;;;;;4995261;28;93419;-64
2023/10/23 00:51:47;;;;;;;5.25;4.32;;;;;;;;;;4995088;28;92485;-64
2023/10/23 00:54:14;;;;;;;6.05;4.13;;;;;;;;;;5001810;28;95057;-65
2023/10/23 00:56:40;;;;;;;5.10;4.00;;;;;;;;;;5005079;28;93724;-65
2023/10/23 00:59:08;;;;;;;8.73;4.38;;;;;;;;;;4997977;28;93046;-64
2023/10/23 01:01:35;;;;;;;9.40;4.35;;;;;;;;;;4995115;28;93088;-64
2023/10/23 01:04:03;;;;;;;5.47;4.00;;;;;;;;;;4995376;28;93459;-65
2023/10/23 01:06:30;;;;;;;17.80;4.25;;;;;;;;;;4998543;28;92345;-65
2023/10/23 01:08:57;;;;;;;10.57;4.70;;;;;;;;;;4995142;28;93482;-65
2023/10/23 01:11:23;;;;;;;6.32;4.68;;;;;;;;;;4998196;28;91923;-65
2023/10/23 01:13:49;;;;;;;6.38;4.60;;;;;;;;;;4995525;28;93409;-65
2023/10/23 01:16:16;;;;;;;5.47;4.45;;;;;;;;;;4998655;28;93370;-65
2023/10/23 01:18:42;;;;;;;7.45;4.47;;;;;;;;;;4997094;28;94900;-65
2023/10/23 01:21:08;;;;;;;9.23;4.82;;;;;;;;;;4993807;28;96655;-65
2023/10/23 01:23:36;;;;;;;9.80;4.85;;;;;;;;;;4994218;28;94489;-65
2023/10/23 01:26:02;;;;;;;7.32;4.72;;;;;;;;;;4995060;28;92334;-65
2023/10/23 01:28:29;;;;;;;10.77;4.65;;;;;;;;;;5001838;28;93116;-65
2023/10/23 01:30:55;;;;;;;5.07;4.40;;;;;;;;;;4998021;28;92922;-64
2023/10/23 01:33:21;;;;;;;7.63;5.10;;;;;;;;;;4994471;28;93172;-65
2023/10/23 01:35:48;;;;;;;6.63;4.90;;;;;;;;;;4995271;28;93656;-65
2023/10/23 01:38:14;;;;;;;9.88;4.75;;;;;;;;;;4998664;28;92467;-64
2023/10/23 01:40:41;;;;;;;6.45;4.68;;;;;;;;;;4994013;28;93549;-65
2023/10/23 01:43:07;;;;;;;9.68;4.70;;;;;;;;;;4995856;28;95866;-65
2023/10/23 01:45:34;;;;;;;6.97;4.78;;;;;;;;;;4994506;28;92464;-65
2023/10/23 01:48:00;;;;;;;8.25;4.80;;;;;;;;;;4998973;28;92977;-65
2023/10/23 01:50:26;;;;;;;9.65;4.85;;;;;;;;;;5000347;27;92506;-62
2023/10/23 01:52:53;;;;;;;12.60;4.93;;;;;;;;;;4994414;28;93113;-62
2023/10/23 01:55:19;;;;;;;6.53;4.97;;;;;;;;;;4996176;28;93544;-62
2023/10/23 01:57:45;;;;;;;8.63;4.82;;;;;;;;;;4995983;28;92435;-63
2023/10/23 02:00:13;;;;;;;6.20;4.32;;;;;;;;;;4994112;28;93191;-62
2023/10/23 02:02:40;;;;;;;11.55;4.82;;;;;;;;;;4997873;28;93266;-62
2023/10/23 02:05:06;;;;;;;7.55;5.22;;;;;;;;;;4998566;28;92506;-62
2023/10/23 02:07:33;;;;;;;8.00;4.18;;;;;;;;;;4992139;28;94987;-62
2023/10/23 02:10:00;;;;;;;5.43;4.45;;;;;;;;;;5001570;28;93535;-62
2023/10/23 02:12:26;;;;;;;6.80;4.43;;;;;;;;;;4993813;28;93172;-63
2023/10/23 02:14:53;;;;;;;6.53;4.60;;;;;;;;;;4992858;28;92664;-62
2023/10/23 02:17:20;;;;;;;10.40;4.57;;;;;;;;;;5003406;28;94832;-63
2023/10/23 02:19:47;;;;;;;9.88;4.60;;;;;;;;;;4993916;28;93215;-62
2023/10/23 02:22:14;;;;;;;9.70;5.30;;;;;;;;;;4997532;28;94497;-62
2023/10/23 02:24:40;;;;;;;4.80;4.35;;;;;;;;;;4998775;28;91803;-62
2023/10/23 02:27:06;;;;;;;12.50;4.60;;;;;;;;;;4994179;28;93011;-62
2023/10/23 02:29:33;;;;;;;7.85;4.68;;;;;;;;;;5001648;28;93449;-63
2023/10/23 02:31:59;;;;;;;8.32;4.60;;;;;;;;;;4994647;28;95117;-63
2023/10/23 02:34:25;;;;;;;9.70;4.30;;;;;;;;;;4993602;28;93409;-62
2023/10/23 02:36:52;;;;;;;11.30;4.75;;;;;;;;;;4993791;28;92527;-62
2023/10/23 02:39:18;;;;;;;13.15;5.50;;;;;;;;;;4997657;28;93314;-62
2023/10/23 02:41:45;;;;;;;6.40;4.00;;;;;;;;;;4993281;28;94385;-62
2023/10/23 02:44:11;;;;;;;5.95;4.20;;;;;;;;;;4993518;28;92567;-63
2023/10/23 02:46:40;;;;;;;9.90;4.28;;;;;;;;;;4994662;28;93094;-63
2023/10/23 02:49:07;;;;;;;8.00;4.47;;;;;;;;;;4998209;28;93573;-62
2023/10/23 02:51:33;;;;;;;9.35;4.45;;;;;;;;;;4997516;28;92449;-62
2023/10/23 02:54:00;;;;;;;7.82;4.78;;;;;;;;;;5000721;28;94164;-62
2023/10/23 02:56:26;;;;;;;4.85;4.32;;;;;;;;;;4991193;28;96878;-62
2023/10/23 02:58:53;;;;;;;5.20;4.22;;;;;;;;;;4997511;28;95558;-62
2023/10/23 03:01:20;;;;;;;7.05;4.70;;;;;;;;;;4992984;28;94408;-65
2023/10/23 03:03:47;;;;;;;6.22;3.85;;;;;;;;;;4993591;28;92809;-65
2023/10/23 03:06:14;;;;;;;4.97;4.03;;;;;;;;;;4992882;28;93338;-65
2023/10/23 03:08:41;;;;;;;8.05;5.03;;;;;;;;;;4992439;28;93396;-65
2023/10/23 03:11:07;;;;;;;5.68;4.80;;;;;;;;;;4993602;28;92376;-64
2023/10/23 03:13:34;;;;;;;11.35;4.93;;;;;;;;;;4994082;28;93131;-65
2023/10/23 03:16:00;;;;;;;7.68;4.55;;;;;;;;;;4995742;28;93000;-64
2023/10/23 03:18:27;;;;;;;9.38;4.88;;;;;;;;;;4997471;28;92570;-64
2023/10/23 03:20:57;;;;;;;5.00;4.38;;;;;;;;;;4991190;28;96221;-64
2023/10/23 03:23:24;;;;;;;9.13;5.05;;;;;;;;;;5001496;28;92449;-64
2023/10/23 03:25:50;;;;;;;5.47;4.50;;;;;;;;;;4994938;28;93087;-65
2023/10/23 03:28:16;;;;;;;8.25;4.47;;;;;;;;;;4998830;28;93400;-65
2023/10/23 03:30:43;;;;;;;6.97;3.92;;;;;;;;;;4992378;28;92437;-64
2023/10/23 03:33:09;;;;;;;7.45;3.60;;;;;;;;;;4993222;28;93259;-65
2023/10/23 03:35:40;;;;;;;6.63;3.70;;;;;;;;;;4993221;28;93400;-65
2023/10/23 03:38:07;;;;;;;3.97;3.60;;;;;;;;;;4996089;28;91820;-65
2023/10/23 03:40:33;;;;;;;4.85;4.05;;;;;;;;;;4992251;28;93413;-65
2023/10/23 03:42:59;;;;;;;8.65;4.38;;;;;;;;;;4993464;28;92927;-65
2023/10/23 03:45:26;;;;;;;9.02;4.13;;;;;;;;;;4994706;28;94957;-65
2023/10/23 03:47:52;;;;;;;8.60;3.80;;;;;;;;;;4996598;28;94770;-64
2023/10/23 03:50:18;;;;;;;5.32;4.63;;;;;;;;;;4995833;28;92591;-65
2023/10/23 03:52:45;;;;;;;5.18;4.15;;;;;;;;;;4996286;28;93010;-64
2023/10/23 03:55:11;;;;;;;7.32;3.90;;;;;;;;;;4995630;28;93416;-65
2023/10/23 03:57:37;;;;;;;4.22;3.75;;;;;;;;;;4995661;28;92621;-64
2023/10/23 04:00:05;;;;;;;9.10;4.38;;;;;;;;;;4998346;28;93156;-65
2023/10/23 04:02:31;;;;;;;7.05;4.38;;;;;;;;;;4996937;28;91905;-65
2023/10/23 04:04:57;;;;;;;6.32;4.18;;;;;;;;;;4995561;28;92555;-65
2023/10/23 04:07:24;;;;;;;5.97;3.90;;;;;;;;;;4995748;28;93284;-65
2023/10/23 04:09:50;;;;;;;11.77;4.68;;;;;;;;;;4999158;28;94870;-65
2023/10/23 04:12:17;;;;;;;11.25;4.05;;;;;;;;;;4996749;28;95564;-65
2023/10/23 04:14:46;;;;;;;6.35;4.50;;;;;;;;;;4998508;28;94382;-65
2023/10/23 04:17:13;;;;;;;10.50;5.10;;;;;;;;;;4997465;28;92551;-64
2023/10/23 04:19:39;;;;;;;10.43;4.63;;;;;;;;;;5000948;28;93096;-65
2023/10/23 04:22:06;;;;;;;7.60;4.45;;;;;;;;;;4995309;28;92540;-65
2023/10/23 04:24:33;;;;;;;5.25;4.03;;;;;;;;;;4996156;28;94239;-65
2023/10/23 04:26:59;;;;;;;7.30;4.45;;;;;;;;;;5000032;28;93659;-64
2023/10/23 04:29:25;;;;;;;6.57;4.55;;;;;;;;;;4995361;28;92572;-64
2023/10/23 04:31:52;;;;;;;21.42;5.22;;;;;;;;;;5004262;28;93304;-65
2023/10/23 04:34:18;;;;;;;6.20;4.53;;;;;;;;;;4993914;28;95787;-64
2023/10/23 04:36:45;;;;;;;8.20;4.53;;;;;;;;;;4999052;28;92420;-65
2023/10/23 04:39:11;;;;;;;9.93;4.30;;;;;;;;;;4995537;28;93087;-65
2023/10/23 04:41:37;;;;;;;20.50;4.93;;;;;;;;;;4998484;28;93741;-65
2023/10/23 04:44:04;;;;;;;11.00;5.00;;;;;;;;;;4995239;28;93198;-65
2023/10/23 04:46:30;;;;;;;8.75;5.03;;;;;;;;;;5001356;28;93626;-65
2023/10/23 04:48:57;;;;;;;8.15;4.90;;;;;;;;;;4994902;28;92461;-64
2023/10/23 04:51:23;;;;;;;7.85;5.63;;;;;;;;;;4995981;28;93136;-65
2023/10/23 04:53:49;;;;;;;15.52;5.13;;;;;;;;;;4994822;28;94513;-65
2023/10/23 04:56:16;;;;;;;27.90;6.85;;;;;;;;;;4995019;28;92453;-65
2023/10/23 04:58:43;;;;;;;19.95;8.13;;;;;;;;;;4992985;28;94744;-65
2023/10/23 05:01:16;;;;;;;10.90;6.80;;;;;;;;;;4994992;28;93385;-64
2023/10/23 05:03:43;;;;;;;13.80;7.13;;;;;;;;;;4998218;28;92428;-65
2023/10/23 05:06:09;;;;;;;19.65;8.50;;;;;;;;;;4999731;28;93458;-65
2023/10/23 05:08:35;;;;;;;19.77;9.40;;;;;;;;;;4994922;28;93089;-64
2023/10/23 05:11:06;;;;;;;31.67;11.60;;;;;;;;;;4998822;28;92556;-64
2023/10/23 05:13:32;;;;;;;20.67;9.63;;;;;;;;;;4994177;28;93177;-65
2023/10/23 05:16:04;;;;;;;29.60;11.30;;;;;;;;;;4996085;28;91711;-65
2023/10/23 05:18:34;;;;;;;28.17;11.60;;;;;;;;;;4999873;28;92640;-65
2023/10/23 05:21:10;;;;;;;36.40;14.63;;;;;;;;;;4995476;28;94418;-65
2023/10/23 05:23:40;;;;;;;30.35;14.23;;;;;;;;;;4992780;28;95285;-65
2023/10/23 05:26:11;;;;;;;54.25;16.00;;;;;;;;;;5001239;28;96640;-65
2023/10/23 05:28:40;;;;;;;74.65;15.43;;;;;;;;;;4994442;28;92582;-65
2023/10/23 05:31:08;;;;;;;32.08;15.45;;;;;;;;;;4993868;28;94195;-64
2023/10/23 05:33:34;;;;;;;29.63;15.05;;;;;;;;;;4993916;28;93402;-65
2023/10/23 05:36:05;;;;;;;74.68;15.82;;;;;;;;;;4994180;28;92406;-65
2023/10/23 05:38:31;;;;;;;42.58;16.60;;;;;;;;;;4997681;28;93148;-65
2023/10/23 05:40:58;;;;;;;39.63;15.68;;;;;;;;;;4993733;28;92690;-64
2023/10/23 05:43:26;;;;;;;37.70;17.02;;;;;;;;;;4992736;28;92606;-65
2023/10/23 05:45:55;;;;;;;38.85;16.50;;;;;;;;;;4993320;28;93309;-64
2023/10/23 05:48:22;;;;;;;65.50;17.87;;;;;;;;;;4997577;27;95985;-65
2023/10/23 05:50:58;;;;;;;32.25;16.02;;;;;;;;;;4992876;28;96072;-65
2023/10/23 05:53:25;;;;;;;57.58;17.95;;;;;;;;;;4993150;28;94380;-65
2023/10/23 05:55:52;;;;;;;27.23;16.00;;;;;;;;;;4993884;28;92526;-65
2023/10/23 05:58:19;;;;;;;31.95;16.85;;;;;;;;;;4993746;28;95834;-65
2023/10/23 06:00:45;;;;;;;34.63;16.95;;;;;;;;;;4993366;28;94386;-65
2023/10/23 06:03:11;;;;;;;32.17;15.93;;;;;;;;;;4998119;28;92406;-65
2023/10/23 06:05:41;;;;;;;27.30;17.20;;;;;;;;;;4993329;28;93162;-65
2023/10/23 06:08:08;;;;;;;33.80;17.75;;;;;;;;;;4996211;28;93267;-65
2023/10/23 06:10:44;;;;;;;25.80;15.75;;;;;;;;;;5001256;28;92536;-63
2023/10/23 06:13:11;;;;;;;30.98;17.10;;;;;;;;;;4991085;28;95813;-65
2023/10/23 06:15:38;;;;;;;33.22;16.83;;;;;;;;;;4993559;28;92677;-65
2023/10/23 06:18:04;;;;;;;55.72;15.80;;;;;;;;;;4998979;28;93180;-64
2023/10/23 06:20:32;;;;;;;24.52;15.98;;;;;;;;;;4992461;28;93543;-65
2023/10/23 06:22:59;;;;;;;28.88;14.48;;;;;;;;;;5001361;28;92787;-65
2023/10/23 06:25:26;;;;;;;28.15;15.20;;;;;;;;;;4992785;28;93181;-65
2023/10/23 06:27:53;;;;;;;182.43;19.90;;;;;;;;;;4992935;28;93371;-64
2023/10/23 06:30:21;;;;;;;69.18;15.48;;;;;;;;;;5000732;28;91761;-64
2023/10/23 06:32:47;;;;;;;29.45;15.05;;;;;;;;;;4992374;28;93411;-65
2023/10/23 06:35:15;;;;;;;33.88;15.70;;;;;;;;;;4993202;28;92385;-65
2023/10/23 06:37:41;;;;;;;29.98;15.40;;;;;;;;;;4990850;27;94868;-65
2023/10/23 06:40:08;;;;;;;42.38;14.98;;;;;;;;;;4995935;28;93374;-64
2023/10/23 06:42:34;;;;;;;22.45;14.48;;;;;;;;;;4992393;28;92481;-65
2023/10/23 06:45:01;;;;;;;32.53;13.73;;;;;;;;;;4996633;28;92345;-65
2023/10/23 06:47:27;;;;;;;118.07;18.10;;;;;;;;;;4998822;28;92786;-64
2023/10/23 06:49:54;;;;;;;23.00;14.48;;;;;;;;;;4993278;28;92944;-65
2023/10/23 06:52:20;;;;;;;26.80;15.48;;;;;;;;;;4995670;28;94504;-65
2023/10/23 06:54:46;;;;;;;31.98;15.70;;;;;;;;;;4992974;28;91585;-65
2023/10/23 06:57:13;;;;;;;31.63;16.30;;;;;;;;;;4992062;28;92450;-65
2023/10/23 06:59:39;;;;;;;42.35;16.65;;;;;;;;;;4992864;28;94376;-64
2023/10/23 07:02:06;;;;;;;51.75;17.67;;;;;;;;;;4990808;28;95085;-64
2023/10/23 07:04:32;;;;;;;40.08;16.90;;;;;;;;;;4993890;28;96843;-65
2023/10/23 07:06:59;;;;;;;27.02;16.35;;;;;;;;;;4996669;28;93230;-65
2023/10/23 07:09:29;;;;;;;73.80;17.83;;;;;;;;;;4992016;28;92554;-64
2023/10/23 07:11:56;;;;;;;51.63;17.10;;;;;;;;;;4992662;28;92388;-64
2023/10/23 07:14:23;;;;;;;57.65;18.38;;;;;;;;;;4994794;28;93496;-64
2023/10/23 07:16:49;;;;;;;34.30;16.73;;;;;;;;;;4994889;28;93192;-65
2023/10/23 07:19:16;;;;;;;29.20;16.60;;;;;;;;;;4996266;28;93846;-64
2023/10/23 07:21:42;;;;;;;31.77;15.68;;;;;;;;;;4991907;28;92627;-65
2023/10/23 07:24:09;;;;;;;24.40;15.27;;;;;;;;;;4991481;28;93181;-64
2023/10/23 07:26:35;;;;;;;57.95;15.63;;;;;;;;;;4990065;28;95863;-65
2023/10/23 07:29:02;;;;;;;41.30;15.90;;;;;;;;;;5000621;28;92612;-64
2023/10/23 07:31:28;;;;;;;47.72;17.60;;;;;;;;;;4991653;28;93172;-65
2023/10/23 07:33:56;;;;;;;41.80;15.82;;;;;;;;;;4995486;28;93467;-64
2023/10/23 07:36:23;;;;;;;80.10;16.15;;;;;;;;;;4998959;28;92653;-64
2023/10/23 07:38:49;;;;;;;32.40;14.80;;;;;;;;;;4991617;28;93827;-64
2023/10/23 07:41:16;;;;;;;100.95;15.93;;;;;;;;;;4990460;28;92975;-64
2023/10/23 07:43:43;;;;;;;48.67;15.10;;;;;;;;;;4992260;28;94302;-65
2023/10/23 07:46:10;;;;;;;27.70;14.80;;;;;;;;;;4994388;28;93337;-64
2023/10/23 07:48:43;;;;;;;73.07;16.33;;;;;;;;;;5004315;28;92575;-65
2023/10/23 07:51:10;;;;;;;125.28;16.27;;;;;;;;;;4991389;28;94982;-65
2023/10/23 07:53:36;;;;;;;32.28;14.68;;;;;;;;;;4991252;28;94432;-64
2023/10/23 07:56:05;;;;;;;26.38;13.93;;;;;;;;;;4996350;28;92430;-64
2023/10/23 07:58:32;;;;;;;133.68;16.25;;;;;;;;;;4994076;28;94289;-64
2023/10/23 08:01:05;;;;;;;146.63;17.30;;;;;;;;;;4991905;28;92945;-65
2023/10/23 08:03:33;;;;;;;27.88;14.65;;;;;;;;;;4990763;28;93169;-65
2023/10/23 08:06:03;;;;;;;33.38;15.02;;;;;;;;;;4992643;28;94843;-65
2023/10/23 08:08:31;;;;;;;26.73;13.88;;;;;;;;;;4994705;28;92128;-65
2023/10/23 08:10:57;;;;;;;21.70;13.90;;;;;;;;;;4991417;28;93418;-64
2023/10/23 08:13:24;;;;;;;24.73;14.30;;;;;;;;;;4995944;28;94357;-64
2023/10/23 08:15:50;;;;;;;29.60;14.65;;;;;;;;;;4990066;28;94968;-64
2023/10/23 08:18:19;;;;;;;26.92;14.57;;;;;;;;;;4998724;28;95573;-65
2023/10/23 08:21:14;;;;;;;138.20;17.80;;;;;;;;;;4991295;28;92523;-64
2023/10/23 08:23:41;;;;;;;27.38;13.18;;;;;;;;;;4995310;28;93196;-65
2023/10/23 08:26:07;;;;;;;45.38;14.10;;;;;;;;;;4995143;28;93603;-64
2023/10/23 08:28:34;;;;;;;26.50;13.93;;;;;;;;;;4995364;28;92462;-64
2023/10/23 08:31:21;;;;;;;53.90;15.13;;;;;;;;;;4995144;28;92825;-64
2023/10/23 08:34:04;;;;;;;23.50;14.02;;;;;;;;;;4994549;28;93689;-65
2023/10/23 08:36:30;;;;;;;30.00;15.20;;;;;;;;;;4994966;28;92731;-65
2023/10/23 08:38:57;;;;;;;43.00;16.23;;;;;;;;;;4994025;28;93158;-65
2023/10/23 08:41:25;;;;;;;30.63;14.65;;;;;;;;;;4996389;28;95732;-64
2023/10/23 08:43:51;;;;;;;29.08;14.98;;;;;;;;;;4994489;28;95563;-64
2023/10/23 08:46:18;;;;;;;34.35;14.95;;;;;;;;;;4997577;28;92739;-65
2023/10/23 08:48:44;;;;;;;27.60;14.90;;;;;;;;;;4994488;28;92461;-65
2023/10/23 08:51:11;;;;;;;25.08;14.43;;;;;;;;;;4994716;28;93235;-64
2023/10/23 08:53:48;;;;;;;38.13;16.52;;;;;;;;;;4993824;28;93423;-65
2023/10/23 08:56:39;;;;;;;31.52;15.27;;;;;;;;;;4994224;28;92584;-65
2023/10/23 08:59:05;;;;;;;31.70;14.93;;;;;;;;;;4994135;28;93315;-65
2023/10/23 09:01:33;;;;;;;24.98;14.48;;;;;;;;;;4994325;28;92362;-65
2023/10/23 09:04:03;;;;;;;26.00;15.27;;;;;;;;;;4996010;28;92667;-64
2023/10/23 09:06:32;;;;;;;38.22;15.88;;;;;;;;;;5005246;28;94813;-64
2023/10/23 09:08:59;;;;;;;31.63;15.48;;;;;;;;;;4994239;28;92429;-65
2023/10/23 09:14:00;;;;;;;34.58;16.73;;;;;;;;;;5464458;22;95162;-62
2023/10/23 09:16:26;;;;;;;26.38;16.63;;;;;;;;;;4941786;28;93923;-64
2023/10/23 09:18:55;;;;;;;33.67;17.38;;;;;;;;;;4953164;28;94759;-64
2023/10/23 09:21:21;;;;;;;30.65;17.02;;;;;;;;;;4965689;28;94519;-64
2023/10/23 09:23:53;;;;;;;31.83;16.75;;;;;;;;;;4964974;28;91761;-65
2023/10/23 09:26:20;;;;;;;33.60;19.20;;;;;;;;;;4966143;28;92491;-65
2023/10/23 09:28:49;;;;;;;35.53;19.30;;;;;;;;;;4966067;28;93129;-66
2023/10/23 09:31:18;;;;;;;34.42;18.85;;;;;;;;;;4962037;28;95296;-66
2023/10/23 09:33:45;;;;;;;39.30;20.10;;;;;;;;;;4959762;28;93873;-65
2023/10/23 09:36:13;;;;;;;33.90;19.25;;;;;;;;;;4957195;28;92369;-65
2023/10/23 09:38:41;;;;;;;31.98;18.17;;;;;;;;;;4959266;28;93249;-66
2023/10/23 09:41:09;;;;;;;32.72;17.92;;;;;;;;;;4962118;28;93452;-66
2023/10/23 09:43:42;;;;;;;32.33;18.10;;;;;;;;;;4964087;28;92590;-65
2023/10/23 09:46:10;;;;;;;29.45;17.25;;;;;;;;;;4962830;28;93187;-65
2023/10/23 09:48:39;;;;;;;35.05;18.30;;;;;;;;;;4968287;28;92537;-66
2023/10/23 09:51:08;;;;;;;31.95;17.50;;;;;;;;;;4964400;28;92746;-65
2023/10/23 09:53:35;;;;;;;31.77;18.15;;;;;;;;;;4962205;28;94681;-66
2023/10/23 09:56:03;;;;;;;35.28;17.50;;;;;;;;;;4959445;28;94832;-65
2023/10/23 09:58:32;;;;;;;28.98;16.60;;;;;;;;;;4958413;28;96752;-65
2023/10/23 10:00:59;;;;;;;31.83;16.80;;;;;;;;;;4958738;28;94625;-66
2023/10/23 10:03:27;;;;;;;28.02;16.90;;;;;;;;;;4964951;28;92629;-65
2023/10/23 10:06:03;;;;;;;30.25;16.25;;;;;;;;;;4962611;28;93623;-65
2023/10/23 10:08:35;;;;;;;28.15;16.15;;;;;;;;;;4958502;28;93638;-66
2023/10/23 10:11:03;;;;;;;35.53;17.00;;;;;;;;;;4961637;28;92370;-65
2023/10/23 10:13:30;;;;;;;30.88;17.42;;;;;;;;;;4954538;28;92478;-65
2023/10/23 10:15:58;;;;;;;36.78;16.05;;;;;;;;;;4964866;28;92505;-66
2023/10/23 10:18:24;;;;;;;33.95;17.75;;;;;;;;;;4962545;28;92267;-66
2023/10/23 10:20:55;;;;;;;33.22;16.23;;;;;;;;;;4956040;28;96849;-66
2023/10/23 10:23:22;;;;;;;28.90;15.32;;;;;;;;;;4964211;28;92411;-66
2023/10/23 10:25:48;;;;;;;21.92;12.57;;;;;;;;;;4963741;28;93187;-66
2023/10/23 10:28:15;;;;;;;26.35;13.38;;;;;;;;;;4960943;28;93364;-66
2023/10/23 10:30:43;;;;;;;20.48;13.07;;;;;;;;;;4967440;28;92542;-65
2023/10/23 10:33:10;;;;;;;24.55;11.98;;;;;;;;;;4957541;28;93770;-65
2023/10/23 10:35:57;;;;;;;23.92;11.07;;;;;;;;;;4961860;28;92526;-66
2023/10/23 10:38:24;;;;;;;25.52;10.00;;;;;;;;;;4963833;28;93495;-65
2023/10/23 10:40:53;;;;;;;17.05;9.50;;;;;;;;;;4958848;28;95757;-65
2023/10/23 10:43:22;;;;;;;19.50;10.00;;;;;;;;;;4964348;28;92476;-67
2023/10/23 10:45:49;;;;;;;21.85;8.73;;;;;;;;;;4963238;28;94764;-65
2023/10/23 10:48:16;;;;;;;16.80;9.45;;;;;;;;;;4963673;28;94408;-66
2023/10/23 10:50:42;;;;;;;19.25;9.35;;;;;;;;;;4963056;28;92507;-66
2023/10/23 10:53:12;;;;;;;17.08;9.00;;;;;;;;;;4963273;28;94117;-66
2023/10/23 10:55:39;;;;;;;17.75;9.52;;;;;;;;;;4961062;28;92507;-66
2023/10/23 10:58:06;;;;;;;22.02;9.95;;;;;;;;;;4965479;28;93346;-65
2023/10/23 11:00:35;;;;;;;22.63;10.02;;;;;;;;;;4958450;28;94305;-65
2023/10/23 11:03:03;;;;;;;19.48;9.23;;;;;;;;;;4964944;28;91778;-65
2023/10/23 11:05:29;;;;;;;25.50;9.60;;;;;;;;;;4961945;28;93501;-66
2023/10/23 11:07:56;;;;;;;20.67;9.20;;;;;;;;;;4964853;28;93372;-66
2023/10/23 11:10:22;;;;;;;20.45;9.60;;;;;;;;;;4957549;28;94946;-66
2023/10/23 11:12:50;;;;;;;14.38;8.85;;;;;;;;;;4961470;28;95192;-65
2023/10/23 11:15:17;;;;;;;20.10;9.70;;;;;;;;;;4967128;28;94452;-65
2023/10/23 11:17:44;;;;;;;20.45;9.75;;;;;;;;;;4966256;28;94020;-66
2023/10/23 11:20:11;;;;;;;15.88;9.23;;;;;;;;;;4960267;28;92590;-66
2023/10/23 11:22:42;;;;;;;17.45;9.05;;;;;;;;;;4961265;28;92816;-65
2023/10/23 11:25:09;;;;;;;;;;;;;;;;;;4960251;28;93296;-63
2023/10/23 11:27:38;;;;;;;19.55;8.73;;;;;;;;;;4966174;28;121558;-66
2023/10/23 11:30:05;;;;;;;24.27;9.70;;;;;;;;;;4953638;28;92538;-65
2023/10/23 11:32:32;;;;;;;18.73;8.85;;;;;;;;;;4965487;28;93125;-66
2023/10/23 11:35:03;;;;;;;20.17;8.35;;;;;;;;;;4960617;28;96839;-63
2023/10/23 11:37:36;;;;;;;14.10;8.05;;;;;;;;;;4968044;28;92485;-63
2023/10/23 11:40:06;;;;;;;18.80;7.50;;;;;;;;;;4957778;28;93439;-64
2023/10/23 11:42:56;;;;;;;16.35;8.05;;;;;;;;;;4958250;28;92466;-63
2023/10/23 11:45:22;;;;;;;17.85;7.70;;;;;;;;;;4950722;28;93698;-63
2023/10/23 11:47:49;;;;;;;16.73;7.05;;;;;;;;;;4961934;28;92684;-63
2023/10/23 11:50:17;;;;;;;16.42;6.82;;;;;;;;;;4960959;28;92552;-63
2023/10/23 11:52:48;;;;;;;14.20;7.07;;;;;;;;;;4959174;28;94324;-64
2023/10/23 11:55:15;;;;;;;22.77;6.93;;;;;;;;;;4963700;28;93829;-63
2023/10/23 11:57:44;;;;;;;17.38;7.07;;;;;;;;;;4961763;28;92634;-63
2023/10/23 12:00:12;;;;;;;17.35;6.35;;;;;;;;;;4965425;28;95062;-63
2023/10/23 12:02:42;;;;;;;17.35;7.10;;;;;;;;;;4961645;28;92495;-64
2023/10/23 12:05:12;;;;;;;15.75;6.53;;;;;;;;;;4963126;28;93194;-63
2023/10/23 12:07:40;;;;;;;21.30;6.70;;;;;;;;;;4959988;28;93455;-63
2023/10/23 12:10:07;;;;;;;15.32;6.82;;;;;;;;;;4968118;28;92748;-64
2023/10/23 12:12:34;;;;;;;15.93;5.85;;;;;;;;;;4961486;28;92843;-64
2023/10/23 12:15:00;;;;;;;16.58;6.78;;;;;;;;;;4967093;28;94798;-63
2023/10/23 12:17:26;;;;;;;14.60;6.05;;;;;;;;;;4965927;28;91658;-63
2023/10/23 12:19:53;;;;;;;11.07;5.25;;;;;;;;;;4965889;28;92440;-63
2023/10/23 12:22:19;;;;;;;14.27;6.68;;;;;;;;;;4969931;28;94538;-63
2023/10/23 12:24:46;;;;;;;20.90;6.45;;;;;;;;;;4961949;28;94904;-63
2023/10/23 12:27:12;;;;;;;16.17;5.88;;;;;;;;;;4960372;28;94428;-63
2023/10/23 12:29:38;;;;;;;15.73;6.07;;;;;;;;;;4964262;28;92538;-63
2023/10/23 12:32:07;;;;;;;16.70;6.13;;;;;;;;;;4961188;28;93418;-63
2023/10/23 12:34:35;;;;;;;15.00;5.88;;;;;;;;;;4966920;28;93783;-63
2023/10/23 12:37:02;;;;;;;15.20;6.22;;;;;;;;;;4964888;28;92557;-63
2023/10/23 12:39:29;;;;;;;12.00;6.38;;;;;;;;;;4965986;28;93213;-64
2023/10/23 12:41:55;;;;;;;13.85;6.22;;;;;;;;;;4969264;28;94180;-63
2023/10/23 12:44:22;;;;;;;15.93;6.68;;;;;;;;;;4966237;28;93453;-63
2023/10/23 12:46:48;;;;;;;20.80;7.13;;;;;;;;;;4957790;28;94389;-63
2023/10/23 12:49:17;;;;;;;16.60;6.82;;;;;;;;;;4966795;28;94881;-64
2023/10/23 12:51:43;;;;;;;15.45;6.30;;;;;;;;;;4964108;28;95566;-64
2023/10/23 12:54:10;;;;;;;19.17;6.82;;;;;;;;;;4966150;28;95722;-64
2023/10/23 12:56:37;;;;;;;16.25;6.82;;;;;;;;;;4960853;28;92747;-63
2023/10/23 12:59:04;;;;;;;19.10;7.68;;;;;;;;;;4966819;28;93157;-63
2023/10/23 13:01:31;;;;;;;16.52;7.28;;;;;;;;;;4964608;28;94487;-63
2023/10/23 13:03:59;;;;;;;17.13;7.50;;;;;;;;;;4969462;28;92558;-63
2023/10/23 13:06:26;;;;;;;21.65;7.88;;;;;;;;;;4959844;28;92680;-63
2023/10/23 13:08:52;;;;;;;16.25;7.75;;;;;;;;;;4961817;28;92485;-63
2023/10/23 13:11:18;;;;;;;14.95;7.53;;;;;;;;;;4964728;28;93331;-63
2023/10/23 13:13:45;;;;;;;22.35;8.45;;;;;;;;;;4959400;28;97148;-63
2023/10/23 13:16:11;;;;;;;18.67;8.30;;;;;;;;;;4964036;28;92445;-63
2023/10/23 13:18:41;;;;;;;19.08;7.30;;;;;;;;;;4966781;28;93119;-63
2023/10/23 13:21:19;;;;;;;19.48;8.07;;;;;;;;;;4962115;28;94456;-63
2023/10/23 13:23:59;;;;;;;14.80;7.32;;;;;;;;;;4958915;28;92390;-63
2023/10/23 13:26:25;;;;;;;15.88;7.47;;;;;;;;;;4963413;28;92593;-63
2023/10/23 13:28:51;;;;;;;16.90;7.68;;;;;;;;;;4958093;28;92560;-63
2023/10/23 13:31:18;;;;;;;22.05;8.15;;;;;;;;;;4966481;28;93042;-63
2023/10/23 13:33:45;;;;;;;13.32;7.97;;;;;;;;;;4963607;28;94348;-63
2023/10/23 13:36:11;;;;;;;26.05;8.23;;;;;;;;;;4966396;28;92436;-63
2023/10/23 13:38:37;;;;;;;16.15;7.32;;;;;;;;;;4958763;28;95084;-63
2023/10/23 13:41:07;;;;;;;14.90;7.03;;;;;;;;;;4965966;28;93376;-63
2023/10/23 13:43:33;;;;;;;17.25;8.48;;;;;;;;;;4964288;28;92533;-63
2023/10/23 13:46:00;;;;;;;17.33;8.02;;;;;;;;;;4965387;28;93145;-63
2023/10/23 13:48:27;;;;;;;25.73;9.07;;;;;;;;;;4968838;28;93585;-63
2023/10/23 13:50:53;;;;;;;18.17;8.60;;;;;;;;;;4966708;28;93152;-62
2023/10/23 13:53:23;;;;;;;18.45;8.90;;;;;;;;;;4965762;28;94763;-63
2023/10/23 13:55:50;;;;;;;14.40;8.57;;;;;;;;;;4964661;28;92228;-65
2023/10/23 13:58:18;;;;;;;22.90;9.00;;;;;;;;;;4965652;28;92579;-65
2023/10/23 14:00:45;;;;;;;23.27;8.68;;;;;;;;;;4967183;28;93927;-65
2023/10/23 14:03:11;;;;;;;25.60;8.48;;;;;;;;;;4956710;28;94884;-65
2023/10/23 14:05:37;;;;;;;21.75;8.13;;;;;;;;;;4962859;28;96729;-66
2023/10/23 14:08:04;;;;;;;22.27;8.27;;;;;;;;;;4963184;28;93417;-65
2023/10/23 14:10:30;;;;;;;25.05;8.52;;;;;;;;;;4967977;28;92835;-65
2023/10/23 14:12:57;;;;;;;19.67;8.30;;;;;;;;;;4963426;28;92506;-67
2023/10/23 14:15:23;;;;;;;22.23;8.13;;;;;;;;;;4962367;28;92595;-65
2023/10/23 14:17:50;;;;;;;19.75;8.40;;;;;;;;;;4963885;28;93202;-65
2023/10/23 14:20:16;;;;;;;15.38;7.57;;;;;;;;;;4964202;28;92571;-65
2023/10/23 14:22:43;;;;;;;21.27;8.15;;;;;;;;;;4958939;28;92681;-65
2023/10/23 14:25:10;;;;;;;18.80;7.00;;;;;;;;;;4960472;28;93144;-65
2023/10/23 14:27:37;;;;;;;16.25;5.97;;;;;;;;;;4955631;28;95829;-65
2023/10/23 14:30:07;;;;;;;16.75;5.97;;;;;;;;;;4962675;28;92585;-65
2023/10/23 14:32:34;;;;;;;18.65;6.95;;;;;;;;;;4967380;28;93166;-66